Tom Price, Western Australia

8:15 PM AWST on October 01, 2014 (GMT +0800)
Tom Price Weather Centre | Change Station
CLOSE
Current Station
Personal Weather Station
Location: Tom Price, WA
Elevation: 2378 ft
Nearby Weather Stations

Elev 2378 ft 22.69 °S, 117.79 °E | Updated 6 seconds ago

Clear
Clear
81.0 °F
Feels Like 79 °F
N
4.0
Wind Variable Wind from WNW
Gusts 4.0 mph

Today
High -- | Low -- °F
--% Chance of Precip.
Yesterday
High -- | Low -- °F
Precip. -- in
5:50 AM 6:07 PM
Waxing Crescent, 47% visible
Pressure 29.95 in
Visibility 6.2 miles
Clouds
Heat Index 79 °F
Dew Point 35 °F
Humidity 19%
Rainfall 0.00 in
Snow Depth Not available.
UV 0.0 out of 12
Pollen Not available.
Air Quality Not available.
Flu Activity Not available.
METAR YPBO 011100Z AUTO 27015KT 9999 // NCD 32/01 Q1014

More Conditions Fewer Conditions

Pressure 29.95 in
Visibility 6.2 miles
Clouds
Heat Index 79 °F
Dew Point 35 °F
Humidity 19%
Rainfall 0.00 in
Snow Depth Not available.
UV 0.0 out of 12
Pollen Not available.
Air Quality Not available.
Flu Activity Not available.
METAR YPBO 011100Z AUTO 27015KT 9999 // NCD 32/01 Q1014

More Conditions Fewer Conditions

10-Day Weather Forecast

Almanac

Astronomy

Oct. 01, 2014 Rise Set
Actual Time 5:50 AM AWST 6:07 PM AWST
Civil Twilight 5:27 AM AWST 6:30 PM AWST
Nautical Twilight 5:01 AM AWST 6:56 PM AWST
Astronomical Twilight 4:35 AM AWST 7:22 PM AWST
Moon 10:54 AM AWST No Moon Set
Length of Visible Light 13h 02m
Length of Day
12h 17m
Tomorrow will be 1m 18s longer.
Waxing Crescent, 47% of the Moon is Illuminated
Today
Waxing Crescent
Oct 1
First Quarter
Oct 8
Full
Oct 15
Last Quarter
Oct 23
New

Yesterday's Extremes

Country Highs Country Lows

Community

WunderPhotos

Upload Photos

1,757,914 photos uploaded!

WunderBlogs® & News

Nearby

Snow Depth

Not available.

Earthquake Activity

City Distance Mag. Time & Date
No recent earthquake activity has been reported nearby.
Minimum magnitude displayed is 2.5.

Coastal Water Temperatures

Place Temperature
No Stations Reporting

Nearby Weather Stations